Time;durP1;ratioP1;P1;durP2;ratioP2;P2;SDS_P1;SDS_P2;PMS_P1;PMS_P2;Temp;Humidity;BMP_temperature;BMP_pressure;BME280_temperature;BME280_humidity;BME280_pressure;Samples;Min_cycle;Max_cycle;Signal;HPM_P1;HPM_P2
2022/09/03 00:00:40;;;;;;;2.03;1.80;;;;;;;10.97;67.29;98551.06;4237591;27;20073;-69
2022/09/03 00:02:49;;;;;;;1.85;1.63;;;;;;;10.94;66.99;98548.25;4238200;27;20709;-69
2022/09/03 00:05:08;;;;;;;1.90;1.55;;;;;;;10.89;66.92;98545.81;4237601;27;20057;-69
2022/09/03 00:07:29;;;;;;;2.17;1.77;;;;;;;10.84;67.20;98548.91;4237847;27;20482;-69
2022/09/03 00:09:41;;;;;;;2.08;1.80;;;;;;;10.77;67.20;98549.66;4237339;27;20403;-69
2022/09/03 00:11:57;;;;;;;1.70;1.60;;;;;;;10.73;67.58;98550.78;4237672;27;20833;-69
2022/09/03 00:14:21;;;;;;;1.90;1.70;;;;;;;10.71;67.55;98553.94;4237194;27;20043;-69
2022/09/03 00:16:28;;;;;;;2.80;1.95;;;;;;;10.67;66.93;98553.91;4237946;27;20134;-69
2022/09/03 00:18:33;;;;;;;2.00;1.60;;;;;;;10.63;67.50;98543.94;4237641;27;20429;-69
2022/09/03 00:21:07;;;;;;;3.42;1.55;;;;;;;10.63;67.28;98557.78;4237694;27;20122;-69
2022/09/03 00:23:14;;;;;;;2.95;1.75;;;;;;;10.60;67.15;98542.72;4237209;27;20042;-69
2022/09/03 00:25:21;;;;;;;2.63;1.88;;;;;;;10.55;68.35;98545.81;4236975;27;20096;-69
2022/09/03 00:27:25;;;;;;;2.78;1.80;;;;;;;10.52;68.32;98548.56;4236713;27;20043;-69
2022/09/03 00:29:36;;;;;;;4.38;2.00;;;;;;;10.47;69.30;98540.56;4236916;27;20446;-69
2022/09/03 00:31:46;;;;;;;3.00;2.00;;;;;;;10.42;69.22;98544.47;4237568;27;20538;-69
2022/09/03 00:33:50;;;;;;;2.33;1.90;;;;;;;10.37;69.66;98545.59;4237062;27;20047;-69
2022/09/03 00:36:09;;;;;;;2.58;2.03;;;;;;;10.38;69.63;98554.69;4237522;27;20134;-69
2022/09/03 00:38:09;;;;;;;2.30;1.77;;;;;;;10.38;69.59;98549.16;4237071;27;20058;-69
2022/09/03 00:40:23;;;;;;;4.05;3.42;;;;;;;10.36;69.87;98555.06;4236178;27;20443;-69
2022/09/03 00:43:16;;;;;;;3.47;1.92;;;;;;;10.39;69.45;98545.22;4237046;27;20035;-69
2022/09/03 00:45:22;;;;;;;3.28;2.03;;;;;;;10.37;70.16;98553.09;4215176;27;20050;-69
2022/09/03 00:47:29;;;;;;;2.58;2.20;;;;;;;10.33;70.09;98552.25;4236480;27;20043;-69
2022/09/03 00:49:56;;;;;;;4.55;2.22;;;;;;;10.31;70.05;98549.84;4236635;27;20471;-69
2022/09/03 00:52:11;;;;;;;2.75;1.95;;;;;;;10.30;70.60;98547.47;4237421;27;20039;-69
2022/09/03 00:54:20;;;;;;;6.78;2.20;;;;;;;10.29;70.24;98552.19;4236630;27;20464;-69
2022/09/03 00:56:45;;;;;;;3.20;2.25;;;;;;;10.28;70.88;98552.59;4235556;27;20345;-69
2022/09/03 00:58:59;;;;;;;2.22;2.00;;;;;;;10.26;71.37;98554.91;4236352;27;20035;-69
2022/09/03 01:01:13;;;;;;;4.20;2.38;;;;;;;10.23;71.66;98550.13;4236949;27;20490;-69
2022/09/03 01:03:33;;;;;;;3.35;2.20;;;;;;;10.21;72.04;98547.72;4236061;27;20039;-69
2022/09/03 01:06:08;;;;;;;2.40;1.75;;;;;;;10.23;71.21;98545.41;4236417;27;20244;-69
2022/09/03 01:08:31;;;;;;;2.17;1.70;;;;;;;10.25;70.22;98551.34;4195948;27;20092;-69
2022/09/03 01:11:01;;;;;;;2.33;2.13;;;;;;;10.25;70.43;98548.56;4236320;27;20043;-69
2022/09/03 01:13:16;;;;;;;5.30;2.20;;;;;;;10.26;70.79;98547.44;4236512;27;20284;-69
2022/09/03 01:15:39;;;;;;;2.80;2.47;;;;;;;10.22;71.05;98537.44;4236924;27;20386;-69
2022/09/03 01:17:58;;;;;;;3.92;2.10;;;;;;;10.18;71.86;98542.94;4237078;27;20424;-69
2022/09/03 01:20:15;;;;;;;2.60;2.00;;;;;;;10.14;71.66;98548.41;4235118;27;20108;-69
2022/09/03 01:23:00;;;;;;;2.25;1.90;;;;;;;10.11;70.92;98549.16;4235836;27;20325;-69
2022/09/03 01:25:47;;;;;;;3.40;2.20;;;;;;;10.10;71.43;98553.09;4236495;27;20270;-69
2022/09/03 01:28:12;;;;;;;3.45;2.20;;;;;;;10.08;71.47;98551.84;4191149;27;20126;-69
2022/09/03 01:30:17;;;;;;;2.30;2.03;;;;;;;10.03;71.48;98552.19;4235895;27;20055;-69
2022/09/03 01:32:47;;;;;;;5.75;2.03;;;;;;;10.00;72.29;98544.63;4236616;27;20026;-69
2022/09/03 01:34:54;;;;;;;3.25;2.20;;;;;;;9.95;71.86;98543.00;4236286;27;20087;-69
2022/09/03 01:37:00;;;;;;;2.85;2.50;;;;;;;9.90;72.07;98550.81;4236792;27;20394;-69
2022/09/03 01:39:09;;;;;;;5.07;2.60;;;;;;;9.85;71.96;98541.66;4236450;27;20519;-69
2022/09/03 01:44:31;;;;;;;3.38;2.47;;;;;;;9.78;73.11;98543.53;4235896;27;20091;-69
2022/09/03 01:46:39;;;;;;;3.35;2.30;;;;;;;9.75;72.25;98542.28;4236658;28;20057;-69
2022/09/03 01:48:48;;;;;;;4.20;2.30;;;;;;;9.74;72.20;98540.69;4234815;28;20479;-69
2022/09/03 01:51:02;;;;;;;3.10;2.20;;;;;;;9.71;72.38;98548.94;4240724;27;20478;-69
2022/09/03 01:53:18;;;;;;;2.25;2.00;;;;;;;9.69;72.16;98545.75;4241944;27;20467;-69
2022/09/03 01:55:24;;;;;;;2.63;2.00;;;;;;;9.65;72.57;98547.66;4241976;27;20352;-69
2022/09/03 01:57:39;;;;;;;3.92;2.05;;;;;;;9.59;73.22;98549.91;4242081;27;20055;-69
2022/09/03 01:59:54;;;;;;;3.10;1.90;;;;;;;9.51;73.93;98549.00;4241168;27;20055;-69
2022/09/03 02:02:09;;;;;;;2.17;1.88;;;;;;;9.49;73.97;98547.78;4241054;27;20051;-69
2022/09/03 02:04:22;;;;;;;6.10;2.20;;;;;;;9.46;73.70;98556.81;4241335;27;20050;-69
2022/09/03 02:06:22;;;;;;;3.70;2.03;;;;;;;9.43;73.27;98549.25;4241991;27;20091;-69
2022/09/03 02:08:23;;;;;;;3.97;2.03;;;;;;;9.38;73.54;98533.81;4241583;27;20156;-69
2022/09/03 02:10:31;;;;;;;1.83;1.73;;;;;;;9.37;73.54;98543.25;4241621;27;20100;-69
2022/09/03 02:12:36;;;;;;;2.83;2.00;;;;;;;9.34;73.98;98548.69;4241843;27;20409;-69
2022/09/03 02:14:37;;;;;;;2.55;1.88;;;;;;;9.33;74.33;98544.34;4241709;27;20047;-69
2022/09/03 02:16:37;;;;;;;2.42;2.22;;;;;;;9.34;73.89;98538.44;4241573;27;20558;-69
2022/09/03 02:18:44;;;;;;;2.83;2.13;;;;;;;9.31;74.38;98541.16;4241813;27;20046;-69
2022/09/03 02:20:47;;;;;;;2.63;2.15;;;;;;;9.26;75.50;98537.53;4242117;27;20058;-69
2022/09/03 02:22:48;;;;;;;;;;;;;;;9.21;74.87;98539.81;4242484;27;20030;-69
2022/09/03 02:24:49;;;;;;;3.13;2.20;;;;;;;9.18;75.12;98540.53;4241258;27;19915;-69
2022/09/03 02:26:49;;;;;;;2.17;1.98;;;;;;;9.17;75.20;98542.50;4241799;27;20043;-69
2022/09/03 02:28:52;;;;;;;4.18;2.30;;;;;;;9.11;76.65;98532.94;4241579;27;20362;-69
2022/09/03 02:30:53;;;;;;;2.72;2.53;;;;;;;9.06;77.42;98537.97;4241699;27;20342;-69
2022/09/03 02:32:53;;;;;;;3.42;2.25;;;;;;;9.00;76.88;98529.16;4241950;27;20126;-69
2022/09/03 02:34:54;;;;;;;3.03;2.38;;;;;;;8.96;76.20;98542.13;4241445;27;20078;-69
2022/09/03 02:36:54;;;;;;;2.75;2.35;;;;;;;8.94;76.53;98531.44;4242396;27;20058;-69
2022/09/03 02:38:54;;;;;;;2.83;2.17;;;;;;;8.91;76.90;98523.09;4241130;27;20356;-69
2022/09/03 02:40:55;;;;;;;2.42;2.13;;;;;;;8.90;77.00;98530.56;4241838;27;20109;-69
2022/09/03 02:42:55;;;;;;;4.13;2.25;;;;;;;8.94;76.78;98525.94;4241520;27;20062;-69
2022/09/03 02:45:16;;;;;;;4.78;2.28;;;;;;;8.95;76.90;98533.03;4241498;27;20522;-69
2022/09/03 02:47:19;;;;;;;7.15;4.35;;;;;;;8.94;76.24;98531.44;4241365;27;20043;-69
2022/09/03 02:49:19;;;;;;;3.40;2.30;;;;;;;8.91;76.88;98531.38;4241487;27;20043;-69
2022/09/03 02:51:20;;;;;;;2.67;2.35;;;;;;;8.89;76.40;98537.25;4241628;27;20519;-69
2022/09/03 02:53:21;;;;;;;2.78;2.40;;;;;;;8.83;76.64;98532.41;4240740;27;20058;-69
2022/09/03 02:55:21;;;;;;;4.13;2.40;;;;;;;8.79;77.27;98531.53;4241572;27;20201;-69
2022/09/03 02:57:22;;;;;;;3.20;2.47;;;;;;;8.75;76.94;98522.38;4241940;27;20043;-69
2022/09/03 02:59:22;;;;;;;4.60;2.42;;;;;;;8.67;77.55;98521.44;4241200;27;20061;-69
2022/09/03 03:01:23;;;;;;;3.38;2.47;;;;;;;8.61;78.02;98525.69;4240626;27;20391;-69
2022/09/03 03:03:23;;;;;;;4.03;2.50;;;;;;;8.53;78.68;98527.50;4238558;27;20747;-69
2022/09/03 03:05:31;;;;;;;4.55;2.42;;;;;;;8.50;78.25;98530.16;4238822;27;20078;-69
2022/09/03 03:07:36;;;;;;;3.15;2.22;;;;;;;8.47;78.53;98536.41;4238070;27;20482;-69
2022/09/03 03:09:36;;;;;;;4.43;2.40;;;;;;;8.46;77.75;98532.88;4238171;27;20047;-69
2022/09/03 03:11:37;;;;;;;2.67;2.45;;;;;;;8.44;77.75;98527.72;4238408;27;20031;-69
2022/09/03 03:13:37;;;;;;;4.38;2.10;;;;;;;8.41;77.34;98533.13;4220355;28;20043;-69
2022/09/03 03:15:38;;;;;;;2.60;2.30;;;;;;;8.39;77.85;98535.47;4238319;27;20039;-69
2022/09/03 03:17:38;;;;;;;3.85;2.30;;;;;;;8.39;77.00;98532.72;4238755;27;20043;-69
2022/09/03 03:19:39;;;;;;;2.90;2.60;;;;;;;8.38;78.10;98529.16;4238063;27;20047;-69
2022/09/03 03:21:39;;;;;;;3.03;2.70;;;;;;;8.39;77.46;98525.25;4238359;27;20056;-69
2022/09/03 03:23:40;;;;;;;2.85;2.38;;;;;;;8.36;77.21;98523.22;4238310;27;20043;-69
2022/09/03 03:25:40;;;;;;;2.83;2.28;;;;;;;8.31;78.26;98519.91;4238405;27;20047;-69
2022/09/03 03:27:42;;;;;;;4.93;2.55;;;;;;;8.26;78.38;98520.97;4238905;27;20522;-69
2022/09/03 03:29:42;;;;;;;2.78;2.20;;;;;;;8.27;78.23;98527.28;4237932;27;20039;-69
2022/09/03 03:31:43;;;;;;;3.10;2.40;;;;;;;8.24;77.60;98523.31;4238470;27;20045;-69
2022/09/03 03:33:43;;;;;;;5.60;3.05;;;;;;;8.21;77.54;98524.03;4238462;27;20078;-69
2022/09/03 03:35:44;;;;;;;3.00;2.47;;;;;;;8.20;78.24;98527.16;4238381;27;20047;-69
2022/09/03 03:37:44;;;;;;;3.45;2.70;;;;;;;8.19;78.21;98526.34;4238018;27;20448;-69
2022/09/03 03:39:44;;;;;;;3.70;2.67;;;;;;;8.16;78.21;98538.88;4237578;27;20045;-69
2022/09/03 03:41:45;;;;;;;3.00;2.70;;;;;;;8.10;78.53;98532.06;4238372;27;20035;-69
2022/09/03 03:43:45;;;;;;;2.50;2.30;;;;;;;8.05;79.26;98537.88;4237492;27;20043;-69
2022/09/03 03:45:55;;;;;;;2.92;2.40;;;;;;;8.01;79.41;98536.97;4238388;27;20383;-69
2022/09/03 03:47:58;;;;;;;4.05;3.10;;;;;;;7.98;79.53;98529.44;4238146;27;20046;-69
2022/09/03 03:49:59;;;;;;;3.33;2.50;;;;;;;7.98;79.91;98534.16;4237562;27;20046;-69
2022/09/03 03:51:59;;;;;;;5.68;2.80;;;;;;;7.92;80.22;98530.06;4238307;27;20535;-69
2022/09/03 03:54:00;;;;;;;2.75;2.53;;;;;;;7.89;80.19;98532.38;4237760;27;20379;-69
2022/09/03 03:56:02;;;;;;;9.57;2.67;;;;;;;7.87;79.86;98531.16;4237932;27;20228;-69
2022/09/03 03:58:03;;;;;;;5.18;2.70;;;;;;;7.78;79.90;98525.84;4238015;27;20039;-69
2022/09/03 04:00:04;;;;;;;4.80;2.53;;;;;;;7.71;80.62;98528.44;4237573;27;20027;-69
2022/09/03 04:02:04;;;;;;;4.55;2.30;;;;;;;7.69;81.20;98533.47;4238339;27;20069;-69
2022/09/03 04:04:04;;;;;;;3.45;2.60;;;;;;;7.66;79.90;98523.19;4237648;27;20475;-69
2022/09/03 04:06:05;;;;;;;9.23;2.40;;;;;;;7.57;80.37;98528.09;4236947;27;20047;-69
2022/09/03 04:08:06;;;;;;;2.95;2.45;;;;;;;7.52;80.22;98525.59;4237513;27;20249;-69
2022/09/03 04:10:07;;;;;;;3.13;2.67;;;;;;;7.48;81.24;98531.03;4236462;27;20159;-69
2022/09/03 04:12:07;;;;;;;3.97;2.60;;;;;;;7.46;81.54;98533.34;4238245;27;20064;-69
2022/09/03 04:14:08;;;;;;;3.72;2.20;;;;;;;7.44;82.11;98529.31;4237004;27;20650;-69
2022/09/03 04:16:11;;;;;;;4.95;2.65;;;;;;;7.44;81.34;98543.09;4237689;27;20027;-69
2022/09/03 04:18:11;;;;;;;5.90;2.90;;;;;;;7.43;80.41;98533.22;4237452;27;20031;-69
2022/09/03 04:20:12;;;;;;;4.53;2.85;;;;;;;7.41;81.02;98528.09;4237260;27;20027;-69
2022/09/03 04:22:14;;;;;;;4.78;2.40;;;;;;;7.43;81.15;98519.47;4237538;27;20056;-69
2022/09/03 04:24:15;;;;;;;2.63;2.40;;;;;;;7.44;80.81;98526.56;4237327;27;20433;-69
2022/09/03 04:26:22;;;;;;;3.83;2.70;;;;;;;7.43;79.89;98525.78;4236733;27;20046;-69
2022/09/03 04:28:22;;;;;;;10.02;3.67;;;;;;;7.40;80.56;98523.75;4236974;27;20046;-69
2022/09/03 04:30:22;;;;;;;11.52;3.00;;;;;;;7.33;80.90;98535.38;4236868;27;20043;-69
2022/09/03 04:34:42;;;;;;;4.20;2.45;;;;;;;7.27;81.38;98525.78;4236537;27;20439;-70
2022/09/03 04:36:42;;;;;;;5.15;3.13;;;;;;;7.19;81.69;98524.00;4237587;27;20042;-69
2022/09/03 04:38:44;;;;;;;6.18;2.92;;;;;;;7.15;82.85;98523.13;4237087;27;20047;-70
2022/09/03 04:40:51;;;;;;;4.18;2.60;;;;;;;7.09;83.50;98519.03;4237339;27;20050;-70
2022/09/03 04:42:56;;;;;;;3.88;2.50;;;;;;;7.08;83.62;98511.94;4237319;27;20066;-70
2022/09/03 04:44:57;;;;;;;2.40;2.20;;;;;;;7.07;83.94;98515.03;4236146;27;20448;-70
2022/09/03 04:46:57;;;;;;;4.80;2.60;;;;;;;7.06;82.83;98513.44;4237152;27;20047;-70
2022/09/03 04:48:57;;;;;;;6.45;2.88;;;;;;;7.13;82.25;98517.19;4236243;27;20047;-70
2022/09/03 04:51:09;;;;;;;7.13;2.80;;;;;;;7.11;81.71;98513.97;4237013;27;20039;-70
2022/09/03 04:53:10;;;;;;;4.30;2.65;;;;;;;7.19;81.19;98518.50;4236951;27;20054;-70
2022/09/03 04:55:10;;;;;;;5.68;2.97;;;;;;;7.24;81.81;98525.69;4236985;27;20478;-70
2022/09/03 04:57:11;;;;;;;5.88;2.78;;;;;;;7.35;81.67;98531.47;4237625;27;20615;-70
2022/09/03 04:59:12;;;;;;;10.90;3.67;;;;;;;7.40;82.15;98539.47;4236304;27;20039;-70
2022/09/03 05:01:20;;;;;;;7.82;2.92;;;;;;;7.48;81.77;98531.03;4236763;27;20047;-70
2022/09/03 05:03:21;;;;;;;5.85;2.80;;;;;;;7.52;80.92;98531.91;4236316;27;20405;-70
2022/09/03 05:05:21;;;;;;;5.60;3.05;;;;;;;7.62;80.76;98538.84;4236988;27;20134;-70
2022/09/03 05:07:21;;;;;;;4.90;2.95;;;;;;;7.71;79.72;98531.19;4236848;27;20422;-70
2022/09/03 05:09:22;;;;;;;5.78;2.65;;;;;;;7.76;80.63;98539.16;4236243;27;20199;-70
2022/09/03 05:11:24;;;;;;;4.13;3.03;;;;;;;7.78;80.99;98534.09;4237090;27;20039;-70
2022/09/03 05:13:24;;;;;;;4.22;2.78;;;;;;;7.78;81.52;98525.84;4236880;27;20223;-70
2022/09/03 05:15:25;;;;;;;4.97;3.08;;;;;;;7.81;82.08;98530.63;4236500;27;20486;-70
2022/09/03 05:17:26;;;;;;;4.35;3.38;;;;;;;7.86;82.56;98535.03;4236828;27;20045;-70
2022/09/03 05:19:26;;;;;;;3.78;2.88;;;;;;;7.85;82.96;98530.69;4235910;27;20043;-70
2022/09/03 05:21:28;;;;;;;4.80;3.05;;;;;;;7.86;82.61;98532.28;4237063;27;20482;-70
2022/09/03 05:23:29;;;;;;;3.28;2.70;;;;;;;7.90;82.05;98535.94;4235175;27;20531;-70
2022/09/03 05:25:31;;;;;;;4.35;2.90;;;;;;;7.95;81.94;98537.63;4235489;27;20081;-70
2022/09/03 05:27:31;;;;;;;4.10;2.90;;;;;;;7.98;81.68;98525.88;4236769;27;20058;-70
2022/09/03 05:29:31;;;;;;;4.55;2.60;;;;;;;8.09;80.75;98529.66;4236021;27;20300;-70
2022/09/03 05:31:34;;;;;;;2.72;2.53;;;;;;;8.17;81.02;98523.16;4236645;27;20057;-70
2022/09/03 05:33:40;;;;;;;5.35;3.00;;;;;;;8.21;81.33;98528.75;4236113;27;20051;-70
2022/09/03 05:35:41;;;;;;;4.68;2.90;;;;;;;8.29;79.08;98520.28;4236093;27;20073;-70
2022/09/03 05:37:41;;;;;;;4.90;3.90;;;;;;;8.38;79.96;98533.88;4237877;27;20047;-70
2022/09/03 05:39:41;;;;;;;5.47;2.78;;;;;;;8.40;80.64;98529.59;4235358;27;20043;-70
2022/09/03 05:41:42;;;;;;;3.10;2.72;;;;;;;8.46;80.46;98526.56;4236604;27;20463;-69
2022/09/03 05:43:42;;;;;;;3.45;3.10;;;;;;;8.47;80.38;98526.19;4236353;27;20050;-70
2022/09/03 05:45:42;;;;;;;5.03;2.75;;;;;;;8.54;80.19;98529.09;4236276;27;20076;-70
2022/09/03 05:47:43;;;;;;;4.72;2.72;;;;;;;8.64;79.07;98527.69;4236000;27;20451;-70
2022/09/03 05:49:43;;;;;;;7.43;2.92;;;;;;;8.72;79.11;98526.69;4235995;28;20700;-70
2022/09/03 05:51:45;;;;;;;3.20;2.90;;;;;;;8.76;79.32;98529.50;4236157;28;20377;-70
2022/09/03 05:53:47;;;;;;;5.07;3.10;;;;;;;8.80;79.83;98522.91;4236028;28;20055;-70
2022/09/03 05:55:54;;;;;;;4.20;3.15;;;;;;;8.85;80.73;98533.63;4236052;28;20055;-70
2022/09/03 05:57:55;;;;;;;4.55;2.63;;;;;;;8.97;80.50;98535.44;4236384;28;20523;-70
2022/09/03 05:59:55;;;;;;;3.50;2.97;;;;;;;9.06;80.25;98536.00;4235879;28;20347;-70
2022/09/03 06:01:56;;;;;;;8.63;3.05;;;;;;;9.14;81.59;98528.63;4235976;28;20403;-70
2022/09/03 06:04:05;;;;;;;3.80;3.30;;;;;;;9.21;81.98;98531.53;4236159;28;20063;-69
2022/09/03 06:06:06;;;;;;;5.45;3.17;;;;;;;9.35;82.07;98534.56;4235083;28;20065;-70
2022/09/03 06:08:06;;;;;;;10.02;3.42;;;;;;;9.47;81.63;98528.03;4236034;28;20114;-70
2022/09/03 06:10:07;;;;;;;3.17;2.80;;;;;;;9.65;82.38;98539.34;4235740;28;20061;-70
2022/09/03 06:12:07;;;;;;;5.38;3.13;;;;;;;9.74;81.44;98529.63;4236062;28;20027;-70
2022/09/03 06:14:10;;;;;;;5.50;3.10;;;;;;;9.91;81.21;98544.09;4236197;28;20045;-70
2022/09/03 06:16:10;;;;;;;4.88;3.53;;;;;;;10.05;81.20;98534.06;4234341;28;20027;-70
2022/09/03 06:18:11;;;;;;;4.25;2.75;;;;;;;10.19;81.00;98535.44;4236235;28;20038;-70
2022/09/03 06:20:11;;;;;;;4.97;3.20;;;;;;;10.31;81.06;98538.00;4235403;28;20027;-70
2022/09/03 06:22:12;;;;;;;3.58;2.53;;;;;;;10.45;80.24;98529.91;4235796;28;20170;-70
2022/09/03 06:24:17;;;;;;;3.55;2.65;;;;;;;10.58;79.74;98536.75;4235956;28;20035;-70
2022/09/03 06:26:19;;;;;;;7.07;3.60;;;;;;;10.75;79.09;98529.03;4236124;28;20505;-70
2022/09/03 06:28:19;;;;;;;3.28;2.97;;;;;;;10.84;78.32;98533.13;4235559;28;20031;-70
2022/09/03 06:30:21;;;;;;;5.95;2.85;;;;;;;10.97;78.29;98528.13;4235852;28;20134;-70
2022/09/03 06:32:21;;;;;;;3.60;2.63;;;;;;;11.07;77.89;98529.41;4236294;28;20451;-70
2022/09/03 06:34:24;;;;;;;4.40;2.78;;;;;;;11.14;77.12;98538.56;4235620;28;20050;-70
2022/09/03 06:36:25;;;;;;;3.20;2.38;;;;;;;11.22;76.45;98533.91;4236135;27;20066;-70
2022/09/03 06:38:28;;;;;;;2.78;2.40;;;;;;;11.25;76.08;98528.41;4237863;27;20390;-70
2022/09/03 06:40:29;;;;;;;5.00;2.50;;;;;;;11.37;75.78;98543.16;4239323;27;20845;-70
2022/09/03 06:42:30;;;;;;;4.15;2.45;;;;;;;11.51;73.58;98549.63;4239282;27;20690;-70
2022/09/03 06:44:30;;;;;;;3.45;2.55;;;;;;;11.65;74.93;98537.84;4234754;27;20559;-70
2022/09/03 06:46:34;;;;;;;5.00;2.97;;;;;;;11.87;74.88;98543.59;4238598;27;20043;-70
2022/09/03 06:48:36;;;;;;;3.25;2.70;;;;;;;12.03;74.01;98521.94;4238027;27;20312;-70
2022/09/03 06:50:36;;;;;;;3.10;2.40;;;;;;;12.22;73.11;98526.38;4238847;27;20509;-70
2022/09/03 06:52:36;;;;;;;3.40;2.28;;;;;;;12.42;72.72;98524.13;4178612;27;20043;-70
2022/09/03 06:54:38;;;;;;;4.30;2.40;;;;;;;12.61;71.85;98524.59;4238597;27;20729;-70
2022/09/03 06:56:40;;;;;;;4.13;2.20;;;;;;;12.79;70.57;98524.66;4238850;27;20062;-70
2022/09/03 06:58:43;;;;;;;2.93;2.33;;;;;;;12.99;70.20;98518.75;4238133;27;20245;-70
2022/09/03 07:00:43;;;;;;;6.25;2.63;;;;;;;13.13;69.74;98521.59;4237278;27;20650;-70
2022/09/03 07:02:43;;;;;;;4.32;2.70;;;;;;;13.25;68.70;98515.69;4235865;27;20123;-70
2022/09/03 07:04:44;;;;;;;2.60;2.38;;;;;;;13.32;67.89;98526.00;4237383;27;20043;-70
2022/09/03 07:06:45;;;;;;;3.97;2.65;;;;;;;13.31;66.79;98521.63;4238435;27;20043;-70
2022/09/03 07:08:45;;;;;;;2.75;2.55;;;;;;;13.34;67.01;98520.88;4237999;27;20054;-70
2022/09/03 07:10:46;;;;;;;5.05;2.60;;;;;;;13.34;66.62;98523.66;4238868;27;20043;-70
2022/09/03 07:12:46;;;;;;;4.38;2.65;;;;;;;13.34;67.19;98520.88;4238861;27;20042;-70
2022/09/03 07:14:46;;;;;;;3.00;2.10;;;;;;;13.36;67.49;98521.25;4237945;27;20100;-70
2022/09/03 07:16:48;;;;;;;4.53;2.58;;;;;;;13.43;66.14;98516.50;4238998;27;20071;-70
2022/09/03 07:18:49;;;;;;;8.65;2.60;;;;;;;13.48;67.01;98512.50;4238386;27;20078;-70
2022/09/03 07:20:50;;;;;;;8.52;2.80;;;;;;;13.54;66.97;98519.28;4238801;27;20360;-70
2022/09/03 07:22:54;;;;;;;3.97;2.47;;;;;;;13.57;66.69;98520.47;4238631;27;20046;-70
2022/09/03 07:24:54;;;;;;;4.38;2.35;;;;;;;13.70;66.66;98518.88;4238168;27;20371;-70
2022/09/03 07:26:55;;;;;;;2.47;2.10;;;;;;;13.81;66.70;98516.88;4239045;27;20051;-70
2022/09/03 07:28:57;;;;;;;4.53;2.22;;;;;;;13.88;65.41;98518.88;4237329;27;20509;-70
2022/09/03 07:31:06;;;;;;;3.65;2.28;;;;;;;14.00;64.95;98521.25;4238570;27;20040;-70
2022/09/03 07:33:06;;;;;;;2.88;2.00;;;;;;;14.14;64.70;98512.06;4238198;27;20134;-70
2022/09/03 07:35:07;;;;;;;4.85;2.00;;;;;;;14.33;64.49;98508.84;4237964;27;20066;-70
2022/09/03 07:37:08;;;;;;;3.00;2.30;;;;;;;14.45;63.28;98510.38;4239305;27;20054;-70
2022/09/03 07:39:10;;;;;;;3.33;2.13;;;;;;;14.65;62.74;98513.53;4238127;27;20791;-70
2022/09/03 07:41:13;;;;;;;2.67;1.95;;;;;;;14.82;62.47;98512.66;4238160;27;20081;-70
2022/09/03 07:43:13;;;;;;;9.00;2.35;;;;;;;14.94;61.00;98505.81;4238015;27;20047;-70
2022/09/03 07:45:13;;;;;;;3.35;1.98;;;;;;;15.02;61.78;98504.59;4238095;27;20375;-70
2022/09/03 07:47:14;;;;;;;4.45;1.83;;;;;;;15.10;59.86;98500.56;4238687;27;20050;-70
2022/09/03 07:49:14;;;;;;;2.45;2.05;;;;;;;15.20;60.17;98496.13;4237024;27;20290;-70
2022/09/03 07:51:16;;;;;;;2.60;2.00;;;;;;;15.30;59.59;98498.03;4238449;27;20047;-70
2022/09/03 07:53:19;;;;;;;7.03;2.63;;;;;;;15.35;59.10;98503.97;4238186;27;20487;-70
2022/09/03 07:55:19;;;;;;;;;;;;;;;15.43;58.01;98513.88;4236321;27;20395;-70
2022/09/03 07:57:20;;;;;;;3.23;2.07;;;;;;;15.51;58.22;98509.03;4238217;27;19911;-70
2022/09/03 07:59:21;;;;;;;2.50;1.95;;;;;;;15.58;57.78;98508.97;4236729;27;20268;-70
2022/09/03 08:01:23;;;;;;;2.35;1.70;;;;;;;15.64;57.08;98503.78;4236569;27;20107;-71
2022/09/03 08:03:24;;;;;;;1.90;1.60;;;;;;;15.63;56.90;98502.97;4237129;27;20066;-71
2022/09/03 08:05:25;;;;;;;2.28;1.80;;;;;;;15.68;57.13;98508.13;4235698;27;20039;-70
2022/09/03 08:07:28;;;;;;;2.55;1.85;;;;;;;15.78;57.37;98511.22;4235436;27;20769;-71
2022/09/03 08:09:28;;;;;;;3.53;1.80;;;;;;;15.92;57.38;98505.53;4237452;27;20043;-70
2022/09/03 08:11:30;;;;;;;4.63;1.60;;;;;;;16.03;56.46;98517.38;4236921;27;20206;-71
2022/09/03 08:13:31;;;;;;;5.97;2.55;;;;;;;16.14;56.03;98508.91;4236830;27;20444;-70
2022/09/03 08:15:33;;;;;;;9.13;2.08;;;;;;;16.22;55.80;98516.78;4236968;27;20058;-70
2022/09/03 08:17:33;;;;;;;2.42;1.80;;;;;;;16.28;55.72;98511.53;4234080;27;20058;-70
2022/09/03 08:19:33;;;;;;;3.88;1.92;;;;;;;16.34;55.18;98503.50;4233867;27;20043;-70
2022/09/03 08:21:34;;;;;;;2.15;1.88;;;;;;;16.38;54.70;98502.22;4234557;27;20042;-71
2022/09/03 08:23:38;;;;;;;4.60;1.65;;;;;;;16.55;55.38;98508.84;4237077;27;20100;-71
2022/09/03 08:25:39;;;;;;;4.05;1.90;;;;;;;16.56;54.20;98502.84;4237297;27;20149;-71
2022/09/03 08:27:39;;;;;;;3.03;1.80;;;;;;;16.69;53.46;98499.50;4237153;27;20508;-71
2022/09/03 08:29:40;;;;;;;3.35;1.83;;;;;;;16.66;53.62;98491.94;4237059;27;20268;-71
2022/09/03 08:31:41;;;;;;;3.40;1.80;;;;;;;16.76;53.52;98496.63;4219229;28;20104;-71
2022/09/03 08:33:49;;;;;;;6.47;1.70;;;;;;;16.85;52.92;98491.31;4236734;27;20051;-70
2022/09/03 08:35:53;;;;;;;2.55;1.75;;;;;;;17.02;52.85;98495.09;4236555;27;20051;-70
2022/09/03 08:37:53;;;;;;;3.42;2.17;;;;;;;17.18;52.44;98491.66;4236535;27;20489;-71
2022/09/03 08:39:54;;;;;;;3.28;1.80;;;;;;;17.18;51.79;98495.25;4237017;27;20047;-71
2022/09/03 08:42:04;;;;;;;5.65;1.80;;;;;;;17.28;51.47;98487.91;4237082;27;20046;-71
2022/09/03 08:44:37;;;;;;;6.70;2.20;;;;;;;17.38;51.02;98489.78;4236915;27;20027;-71
2022/09/03 08:46:46;;;;;;;4.85;2.45;;;;;;;17.58;51.10;98489.84;4206989;27;20586;-71
2022/09/03 08:48:47;;;;;;;3.58;1.77;;;;;;;17.66;49.97;98478.09;4235202;27;20386;-71
2022/09/03 08:50:54;;;;;;;2.60;1.50;;;;;;;17.79;49.85;98483.09;4237290;27;20057;-71
2022/09/03 08:53:10;;;;;;;2.90;1.80;;;;;;;17.81;49.80;98483.50;4236948;27;20397;-71
2022/09/03 08:55:20;;;;;;;2.83;1.73;;;;;;;17.82;50.08;98482.28;4235359;27;20356;-71
2022/09/03 08:57:21;;;;;;;5.63;1.95;;;;;;;17.85;49.44;98478.59;4235382;27;20047;-71
2022/09/03 08:59:22;;;;;;;7.70;3.63;;;;;;;17.93;49.30;98480.84;4234820;27;20351;-71
2022/09/03 09:01:46;;;;;;;3.15;1.90;;;;;;;17.93;49.42;98477.28;4219948;28;20031;-71
2022/09/03 09:04:30;;;;;;;2.35;1.65;;;;;;;18.08;48.79;98480.59;4235258;27;20529;-70
2022/09/03 09:06:37;;;;;;;2.83;1.95;;;;;;;18.27;48.39;98488.22;4235233;27;20051;-71
2022/09/03 09:08:55;;;;;;;3.35;1.50;;;;;;;18.39;47.60;98482.00;4235929;27;20375;-71
2022/09/03 09:11:13;;;;;;;5.68;2.17;;;;;;;18.42;47.53;98480.34;4236356;27;20568;-71
2022/09/03 09:13:32;;;;;;;3.00;1.63;;;;;;;18.50;47.67;98473.38;4236818;27;20041;-71
2022/09/03 09:16:05;;;;;;;2.42;1.50;;;;;;;18.60;47.00;98479.97;4230984;27;20150;-71
2022/09/03 09:18:08;;;;;;;2.95;1.58;;;;;;;18.68;47.31;98476.63;4231937;27;20047;-71
2022/09/03 09:20:41;;;;;;;1.65;1.30;;;;;;;18.81;46.97;98476.78;4215891;28;20122;-71
2022/09/03 09:23:08;;;;;;;3.15;1.52;;;;;;;18.84;46.90;98466.69;4226501;27;20051;-71
2022/09/03 09:25:21;;;;;;;2.72;1.50;;;;;;;18.65;46.99;98466.28;4231661;27;20418;-71
2022/09/03 09:27:22;;;;;;;2.33;1.60;;;;;;;18.51;47.37;98466.53;4232598;27;20046;-71
2022/09/03 09:29:29;;;;;;;5.07;1.60;;;;;;;18.55;46.73;98463.69;4171206;27;20108;-71
2022/09/03 09:31:30;;;;;;;1.92;1.63;;;;;;;18.56;47.16;98468.06;4232505;27;20406;-71
2022/09/03 09:33:31;;;;;;;2.92;1.60;;;;;;;18.64;46.72;98470.28;4231438;27;20030;-71
2022/09/03 09:35:32;;;;;;;4.10;1.60;;;;;;;18.75;47.15;98470.88;4230878;27;20353;-71
2022/09/03 09:37:32;;;;;;;4.28;1.73;;;;;;;18.91;46.51;98474.94;4232138;27;20047;-71
2022/09/03 09:39:32;;;;;;;1.95;1.45;;;;;;;19.04;46.56;98468.25;4229659;27;20059;-71
2022/09/03 09:41:33;;;;;;;2.72;1.40;;;;;;;19.16;44.19;98463.16;4232497;27;20353;-71
2022/09/03 09:43:33;;;;;;;4.88;1.92;;;;;;;19.26;44.78;98457.31;4230350;27;20046;-71
2022/09/03 09:45:34;;;;;;;2.97;1.60;;;;;;;19.40;44.44;98458.97;4233708;27;20548;-71
2022/09/03 09:47:38;;;;;;;3.22;2.05;;;;;;;19.57;44.31;98457.00;4235610;27;20636;-70
2022/09/03 09:49:44;;;;;;;1.58;1.30;;;;;;;19.76;43.70;98458.91;4235198;28;20035;-71
2022/09/03 09:51:45;;;;;;;1.70;1.52;;;;;;;19.88;43.31;98454.59;4216758;28;20058;-70
2022/09/03 09:53:46;;;;;;;1.90;1.45;;;;;;;20.06;42.07;98457.72;4234321;28;20129;-70
2022/09/03 09:55:52;;;;;;;2.05;1.55;;;;;;;20.17;41.97;98463.03;4235185;28;20047;-70
2022/09/03 09:57:52;;;;;;;3.08;1.63;;;;;;;20.26;41.41;98446.34;4233813;28;20055;-70